Time;durP1;ratioP1;P1;durP2;ratioP2;P2;SDS_P1;SDS_P2;PMS_P1;PMS_P2;Temp;Humidity;BMP_temperature;BMP_pressure;BME280_temperature;BME280_humidity;BME280_pressure;Samples;Min_cycle;Max_cycle;Signal;HPM_P1;HPM_P2
2024/01/26 00:01:48;;;;;;;;;;;16.10;70.00;;;;;;6250301;22;19923;-71
2024/01/26 00:04:13;;;;;;;;;;;16.00;70.30;;;;;;6277540;22;19915;-71
2024/01/26 00:06:39;;;;;;;;;;;16.10;70.70;;;;;;6277332;22;20223;-71
2024/01/26 00:09:09;;;;;;;;;;;16.20;70.60;;;;;;6277485;22;19910;-71
2024/01/26 00:11:35;;;;;;;;;;;16.00;66.20;;;;;;6277414;22;20322;-71
2024/01/26 00:14:00;;;;;;;;;;;16.10;70.70;;;;;;6277966;22;19975;-71
2024/01/26 00:16:26;;;;;;;;;;;16.20;70.60;;;;;;6277334;22;20323;-71
2024/01/26 00:18:51;;;;;;;;;;;16.10;70.80;;;;;;6277240;22;19903;-71
2024/01/26 00:21:18;;;;;;;;;;;16.20;70.80;;;;;;6277286;22;20273;-72
2024/01/26 00:23:44;;;;;;;;;;;16.10;70.70;;;;;;6277917;22;19992;-72
2024/01/26 00:26:12;;;;;;;;;;;16.10;70.70;;;;;;6277285;22;19904;-71
2024/01/26 00:28:37;;;;;;;;;;;16.10;71.10;;;;;;6277145;22;19929;-71
2024/01/26 00:31:03;;;;;;;;;;;16.20;70.90;;;;;;6277301;22;19903;-72
2024/01/26 00:33:28;;;;;;;;;;;16.20;70.40;;;;;;6277217;22;19903;-72
2024/01/26 00:35:54;;;;;;;;;;;16.10;70.80;;;;;;6277307;22;20319;-72
2024/01/26 00:38:19;;;;;;;;;;;16.10;70.80;;;;;;6277257;22;19904;-72
2024/01/26 00:40:45;;;;;;;;;;;16.10;70.70;;;;;;6277935;22;19910;-71
2024/01/26 00:43:10;;;;;;;;;;;16.20;70.70;;;;;;6277071;22;19911;-71
2024/01/26 00:45:36;;;;;;;;;;;16.10;70.90;;;;;;6277143;22;19903;-71
2024/01/26 00:48:01;;;;;;;;;;;16.20;70.80;;;;;;6277086;22;19957;-72
2024/01/26 00:50:27;;;;;;;;;;;16.10;70.20;;;;;;6277185;22;20029;-72
2024/01/26 00:52:52;;;;;;;;;;;16.20;70.70;;;;;;6277603;22;20311;-71
2024/01/26 00:55:18;;;;;;;;;;;16.10;70.60;;;;;;6277052;22;19903;-72
2024/01/26 00:57:43;;;;;;;;;;;16.10;70.80;;;;;;6277028;22;20326;-71
2024/01/26 01:00:09;;;;;;;;;;;16.10;70.60;;;;;;6276965;22;19990;-71
2024/01/26 01:02:35;;;;;;;;;;;16.20;70.20;;;;;;6276747;22;19911;-72
2024/01/26 01:05:01;;;;;;;;;;;16.10;70.60;;;;;;6276760;22;20306;-71
2024/01/26 01:07:27;;;;;;;;;;;16.20;70.40;;;;;;6276914;22;20323;-71
2024/01/26 01:09:52;;;;;;;;;;;16.20;70.50;;;;;;6276893;22;19903;-72
2024/01/26 01:12:18;;;;;;;;;;;16.20;70.70;;;;;;6276839;22;19903;-71
2024/01/26 01:14:44;;;;;;;;;;;16.10;70.70;;;;;;6276909;22;19907;-71
2024/01/26 01:17:11;;;;;;;;;;;16.10;70.30;;;;;;6277494;22;19903;-71
2024/01/26 01:19:36;;;;;;;;;;;16.20;70.40;;;;;;6277388;22;19903;-72
2024/01/26 01:22:02;;;;;;;;;;;16.20;70.60;;;;;;6277235;22;20345;-72
2024/01/26 01:24:28;;;;;;;;;;;16.20;70.20;;;;;;6276805;22;19903;-72
2024/01/26 01:26:53;;;;;;;;;;;16.10;70.50;;;;;;6276822;22;19907;-72
2024/01/26 01:29:19;;;;;;;;;;;16.20;70.50;;;;;;6276681;22;19903;-72
2024/01/26 01:31:44;;;;;;;;;;;16.20;70.30;;;;;;6276736;22;19903;-71
2024/01/26 01:34:10;;;;;;;;;;;16.00;70.40;;;;;;6276603;22;19938;-72
2024/01/26 01:36:35;;;;;;;;;;;16.20;70.40;;;;;;6277196;22;19904;-71
2024/01/26 01:39:02;;;;;;;;;;;16.30;70.20;;;;;;6276730;22;19903;-71
2024/01/26 01:41:28;;;;;;;;;;;16.20;70.90;;;;;;6276781;22;19911;-72
2024/01/26 01:43:54;;;;;;;;;;;16.20;70.20;;;;;;6277197;22;20231;-72
2024/01/26 01:46:20;;;;;;;;;;;16.20;70.30;;;;;;6276684;22;19985;-72
2024/01/26 01:48:46;;;;;;;;;;;16.40;70.40;;;;;;6277693;22;19943;-72
2024/01/26 01:51:14;;;;;;;;;;;16.20;70.30;;;;;;6276635;22;19983;-71
2024/01/26 01:53:40;;;;;;;;;;;16.20;70.60;;;;;;6276654;22;19903;-72
2024/01/26 01:56:09;;;;;;;;;;;16.20;70.40;;;;;;6276480;22;19903;-72
2024/01/26 01:58:36;;;;;;;;;;;16.20;69.00;;;;;;6276667;22;19908;-72
2024/01/26 02:01:01;;;;;;;;;;;16.20;70.30;;;;;;6276436;22;19908;-72
2024/01/26 02:03:28;;;;;;;;;;;16.10;69.70;;;;;;6276207;22;19911;-72
2024/01/26 02:05:53;;;;;;;;;;;16.20;70.40;;;;;;6276087;22;19919;-72
2024/01/26 02:08:19;;;;;;;;;;;16.20;70.30;;;;;;6276160;22;19903;-72
2024/01/26 02:10:44;;;;;;;;;;;16.20;70.00;;;;;;6276378;22;19903;-72
2024/01/26 02:13:10;;;;;;;;;;;16.10;69.70;;;;;;6276814;22;20410;-72
2024/01/26 02:15:36;;;;;;;;;;;16.20;70.00;;;;;;6276328;22;19957;-72
2024/01/26 02:18:01;;;;;;;;;;;16.20;70.20;;;;;;6276771;22;19982;-72
2024/01/26 02:20:27;;;;;;;;;;;16.20;70.10;;;;;;6276234;22;19904;-72
2024/01/26 02:22:52;;;;;;;;;;;16.10;70.20;;;;;;6276082;22;20281;-72
2024/01/26 02:25:18;;;;;;;;;;;16.20;70.40;;;;;;6276407;22;20299;-72
2024/01/26 02:27:43;;;;;;;;;;;16.20;70.30;;;;;;6276118;22;19990;-72
2024/01/26 02:30:09;;;;;;;;;;;16.20;69.80;;;;;;6276270;22;19904;-76
2024/01/26 02:32:35;;;;;;;;;;;16.30;69.10;;;;;;6275968;22;20326;-76
2024/01/26 02:35:00;;;;;;;;;;;16.30;70.20;;;;;;6276073;22;19910;-76
2024/01/26 02:37:25;;;;;;;;;;;16.10;70.30;;;;;;6275923;22;19904;-76
2024/01/26 02:39:51;;;;;;;;;;;16.10;70.40;;;;;;6276067;22;19957;-76
2024/01/26 02:42:16;;;;;;;;;;;16.20;70.00;;;;;;6275862;22;19918;-76
2024/01/26 02:44:42;;;;;;;;;;;16.20;70.20;;;;;;6276098;22;19903;-76
2024/01/26 02:47:08;;;;;;;;;;;16.10;70.40;;;;;;6276626;22;20247;-76
2024/01/26 02:49:34;;;;;;;;;;;16.20;70.20;;;;;;6276569;22;19918;-76
2024/01/26 02:51:59;;;;;;;;;;;16.10;70.10;;;;;;6276108;22;20357;-76
2024/01/26 02:54:25;;;;;;;;;;;16.10;70.40;;;;;;6275828;22;19934;-77
2024/01/26 02:56:50;;;;;;;;;;;16.20;70.40;;;;;;6275987;22;19954;-76
2024/01/26 02:59:16;;;;;;;;;;;16.20;70.00;;;;;;6276671;22;20371;-76
2024/01/26 03:01:41;;;;;;;;;;;16.20;70.00;;;;;;6275749;22;19912;-76
2024/01/26 03:04:07;;;;;;;;;;;16.20;70.40;;;;;;6248933;22;19904;-76
2024/01/26 03:06:32;;;;;;;;;;;16.20;70.20;;;;;;6275558;22;19922;-76
2024/01/26 03:08:58;;;;;;;;;;;16.20;70.40;;;;;;6275887;22;19904;-76
2024/01/26 03:11:33;;;;;;;;;;;16.20;70.30;;;;;;6275724;22;19907;-76
2024/01/26 03:13:59;;;;;;;;;;;16.20;70.30;;;;;;6286705;22;19949;-76
2024/01/26 03:16:24;;;;;;;;;;;16.20;70.60;;;;;;6286003;22;19903;-76
2024/01/26 03:18:50;;;;;;;;;;;16.10;70.40;;;;;;6286111;22;20319;-76
2024/01/26 03:21:15;;;;;;;;;;;16.10;70.30;;;;;;6286022;22;19910;-76
2024/01/26 03:23:41;;;;;;;;;;;16.20;70.50;;;;;;6275685;22;19903;-76
2024/01/26 03:26:06;;;;;;;;;;;16.20;70.40;;;;;;6275951;22;19930;-76
2024/01/26 03:28:32;;;;;;;;;;;16.10;70.40;;;;;;6275722;22;19911;-76
2024/01/26 03:30:57;;;;;;;;;;;16.10;70.60;;;;;;6275718;22;20354;-76
2024/01/26 03:33:23;;;;;;;;;;;16.10;70.40;;;;;;6275772;22;20094;-76
2024/01/26 03:35:48;;;;;;;;;;;16.10;70.40;;;;;;6275591;22;19927;-76
2024/01/26 03:38:14;;;;;;;;;;;16.20;70.70;;;;;;6275813;22;19927;-76
2024/01/26 03:40:39;;;;;;;;;;;16.10;70.50;;;;;;6275634;22;19910;-76
2024/01/26 03:43:05;;;;;;;;;;;16.20;70.20;;;;;;6276196;22;19994;-76
2024/01/26 03:45:30;;;;;;;;;;;16.00;70.40;;;;;;6275547;22;19903;-76
2024/01/26 03:47:56;;;;;;;;;;;16.10;70.50;;;;;;6275610;22;19903;-76
2024/01/26 03:50:21;;;;;;;;;;;16.10;70.50;;;;;;6275552;22;19978;-76
2024/01/26 03:52:47;;;;;;;;;;;16.10;70.50;;;;;;6275577;22;19957;-76
2024/01/26 03:55:12;;;;;;;;;;;16.10;70.50;;;;;;6275613;22;19904;-76
2024/01/26 03:57:38;;;;;;;;;;;16.20;70.90;;;;;;6275492;22;20250;-76
2024/01/26 04:00:04;;;;;;;;;;;16.10;70.50;;;;;;6276150;22;19907;-76
2024/01/26 04:02:29;;;;;;;;;;;16.20;70.20;;;;;;6275431;22;19911;-76
2024/01/26 04:04:55;;;;;;;;;;;16.10;70.60;;;;;;6276753;22;19916;-76
2024/01/26 04:07:20;;;;;;;;;;;16.10;70.60;;;;;;6277609;22;19978;-76
2024/01/26 04:09:46;;;;;;;;;;;16.10;71.00;;;;;;6277460;22;19904;-76
2024/01/26 04:12:11;;;;;;;;;;;16.20;70.50;;;;;;6278077;22;20379;-76
2024/01/26 04:14:36;;;;;;;;;;;16.20;71.00;;;;;;6277533;22;19903;-76
2024/01/26 04:17:02;;;;;;;;;;;16.20;71.40;;;;;;6277402;22;20353;-76
2024/01/26 04:19:27;;;;;;;;;;;16.20;70.80;;;;;;6277395;22;19910;-76
2024/01/26 04:21:53;;;;;;;;;;;16.10;71.20;;;;;;6277972;22;19919;-76
2024/01/26 04:24:19;;;;;;;;;;;16.30;71.10;;;;;;6278062;22;19903;-77
2024/01/26 04:26:44;;;;;;;;;;;16.10;70.90;;;;;;6277911;22;20407;-76
2024/01/26 04:29:09;;;;;;;;;;;16.10;71.20;;;;;;6277292;22;19935;-76
2024/01/26 04:31:40;;;;;;;;;;;16.10;71.10;;;;;;6277268;22;19956;-76
2024/01/26 04:34:06;;;;;;;;;;;16.20;71.40;;;;;;6277235;22;19903;-76
2024/01/26 04:36:31;;;;;;;;;;;16.20;71.30;;;;;;6277300;22;19942;-76
2024/01/26 04:38:59;;;;;;;;;;;16.10;71.20;;;;;;6277560;22;19903;-76
2024/01/26 04:41:24;;;;;;;;;;;16.30;71.20;;;;;;6277709;22;20491;-76
2024/01/26 04:43:51;;;;;;;;;;;16.30;71.40;;;;;;6277129;22;19930;-76
2024/01/26 04:46:16;;;;;;;;;;;16.20;71.20;;;;;;6277226;22;19903;-76
2024/01/26 04:48:42;;;;;;;;;;;16.30;71.70;;;;;;6277101;22;19903;-76
2024/01/26 04:51:07;;;;;;;;;;;16.20;71.40;;;;;;6277063;22;19910;-76
2024/01/26 04:53:33;;;;;;;;;;;16.30;71.20;;;;;;6277524;22;19907;-76
2024/01/26 04:55:59;;;;;;;;;;;16.20;71.50;;;;;;6277703;22;19903;-76
2024/01/26 04:58:24;;;;;;;;;;;16.20;71.50;;;;;;6277065;22;20501;-76
2024/01/26 05:00:50;;;;;;;;;;;16.30;71.80;;;;;;6277035;22;19939;-76
2024/01/26 05:03:15;;;;;;;;;;;16.30;71.20;;;;;;6276808;22;19912;-76
2024/01/26 05:05:41;;;;;;;;;;;16.30;71.60;;;;;;6276757;22;19915;-76
2024/01/26 05:08:06;;;;;;;;;;;16.40;71.50;;;;;;6278081;22;19903;-76
2024/01/26 05:10:32;;;;;;;;;;;16.40;71.80;;;;;;6276953;22;19904;-76
2024/01/26 05:12:57;;;;;;;;;;;16.30;71.90;;;;;;6276895;22;19911;-76
2024/01/26 05:15:23;;;;;;;;;;;16.30;71.70;;;;;;6276312;22;20410;-76
2024/01/26 05:17:48;;;;;;;;;;;16.30;71.30;;;;;;6276883;22;19957;-76
2024/01/26 05:20:13;;;;;;;;;;;16.40;71.90;;;;;;6276887;22;19960;-76
2024/01/26 05:22:39;;;;;;;;;;;16.40;71.80;;;;;;6276720;22;19913;-76
2024/01/26 05:25:05;;;;;;;;;;;16.40;71.50;;;;;;6277391;22;19903;-76
2024/01/26 05:27:30;;;;;;;;;;;16.40;71.00;;;;;;6277198;22;19910;-76
2024/01/26 05:29:56;;;;;;;;;;;16.30;71.30;;;;;;6277368;22;19903;-76
2024/01/26 05:32:22;;;;;;;;;;;16.50;71.60;;;;;;6276696;22;20341;-76
2024/01/26 05:34:47;;;;;;;;;;;16.40;71.70;;;;;;6277338;22;19926;-76
2024/01/26 05:37:13;;;;;;;;;;;16.40;71.30;;;;;;6277170;22;19942;-76
2024/01/26 05:39:38;;;;;;;;;;;16.30;71.80;;;;;;6276794;22;19910;-76
2024/01/26 05:42:04;;;;;;;;;;;16.40;71.90;;;;;;6276565;22;20330;-76
2024/01/26 05:44:30;;;;;;;;;;;16.30;71.10;;;;;;6276656;22;19977;-76
2024/01/26 05:46:55;;;;;;;;;;;16.40;71.70;;;;;;6276597;22;19941;-76
2024/01/26 05:49:23;;;;;;;;;;;16.40;71.80;;;;;;6276561;22;19904;-76
2024/01/26 05:51:49;;;;;;;;;;;16.40;71.50;;;;;;6276573;22;19931;-77
2024/01/26 05:54:14;;;;;;;;;;;16.40;71.80;;;;;;6276479;22;19961;-76
2024/01/26 05:56:40;;;;;;;;;;;16.30;71.80;;;;;;6276528;22;19982;-77
2024/01/26 05:59:06;;;;;;;;;;;16.40;71.50;;;;;;6276498;22;20329;-76
2024/01/26 06:01:32;;;;;;;;;;;16.40;71.20;;;;;;6276327;22;19904;-76
2024/01/26 06:03:57;;;;;;;;;;;16.40;71.70;;;;;;6276350;22;20219;-76
2024/01/26 06:06:23;;;;;;;;;;;16.40;71.40;;;;;;6276921;22;19915;-76
2024/01/26 06:08:49;;;;;;;;;;;16.50;71.70;;;;;;6277076;22;19903;-76
2024/01/26 06:11:16;;;;;;;;;;;16.40;71.40;;;;;;6276524;22;20238;-77
2024/01/26 06:13:42;;;;;;;;;;;16.40;71.40;;;;;;6276904;22;19903;-77
2024/01/26 06:16:09;;;;;;;;;;;16.40;71.50;;;;;;6276538;22;20231;-77
2024/01/26 06:18:35;;;;;;;;;;;16.50;71.40;;;;;;6276840;22;20370;-75
2024/01/26 06:21:00;;;;;;;;;;;16.50;71.50;;;;;;6276506;22;19903;-76
2024/01/26 06:23:26;;;;;;;;;;;16.40;71.30;;;;;;6276686;22;19919;-78
2024/01/26 06:25:53;;;;;;;;;;;16.40;71.50;;;;;;6276920;22;19910;-76
2024/01/26 06:28:19;;;;;;;;;;;16.40;71.30;;;;;;6276528;22;19938;-76
2024/01/26 06:30:45;;;;;;;;;;;16.50;71.40;;;;;;6276883;22;19910;-77
2024/01/26 06:33:10;;;;;;;;;;;16.50;71.00;;;;;;6276677;22;19903;-77
2024/01/26 06:35:36;;;;;;;;;;;16.40;71.30;;;;;;6277362;22;19909;-75
2024/01/26 06:38:02;;;;;;;;;;;16.40;71.50;;;;;;6276709;22;20291;-77
2024/01/26 06:40:28;;;;;;;;;;;16.60;70.80;;;;;;6276350;22;19903;-77
2024/01/26 06:42:54;;;;;;;;;;;16.40;71.10;;;;;;6276658;22;20284;-76
2024/01/26 06:45:20;;;;;;;;;;;16.50;71.50;;;;;;6276205;22;19982;-76
2024/01/26 06:47:46;;;;;;;;;;;16.40;71.40;;;;;;6276391;22;19935;-76
2024/01/26 06:50:12;;;;;;;;;;;16.40;71.40;;;;;;6276587;22;19911;-74
2024/01/26 06:52:38;;;;;;;;;;;16.40;71.00;;;;;;6276243;22;19907;-76
2024/01/26 06:55:04;;;;;;;;;;;16.40;71.60;;;;;;6276526;22;19946;-76
2024/01/26 06:57:30;;;;;;;;;;;16.50;70.30;;;;;;6276033;22;19904;-76
2024/01/26 06:59:56;;;;;;;;;;;16.40;71.20;;;;;;6276585;22;20226;-76
2024/01/26 07:02:22;;;;;;;;;;;16.50;71.20;;;;;;6276899;22;19911;-76
2024/01/26 07:04:48;;;;;;;;;;;16.50;71.50;;;;;;6276031;22;20335;-76
2024/01/26 07:07:14;;;;;;;;;;;16.80;71.60;;;;;;6276194;22;19934;-75
2024/01/26 07:09:40;;;;;;;;;;;16.40;71.40;;;;;;6276425;22;19949;-76
2024/01/26 07:12:06;;;;;;;;;;;16.50;71.20;;;;;;6276430;22;19910;-76
2024/01/26 07:14:31;;;;;;;;;;;16.50;70.90;;;;;;6276481;22;19965;-76
2024/01/26 07:16:57;;;;;;;;;;;16.50;71.50;;;;;;6276277;22;20308;-76
2024/01/26 07:19:23;;;;;;;;;;;16.40;71.50;;;;;;6276320;22;19986;-76
2024/01/26 07:21:49;;;;;;;;;;;16.60;71.50;;;;;;6276385;22;19911;-76
2024/01/26 07:24:15;;;;;;;;;;;16.40;71.30;;;;;;6276370;22;20332;-76
2024/01/26 07:26:41;;;;;;;;;;;16.50;71.20;;;;;;6276048;22;19957;-76
2024/01/26 07:29:08;;;;;;;;;;;16.50;71.30;;;;;;6276336;22;19903;-76
2024/01/26 07:31:33;;;;;;;;;;;16.50;71.20;;;;;;6276549;22;19986;-74
2024/01/26 07:33:59;;;;;;;;;;;16.50;71.30;;;;;;6277323;22;19911;-76
2024/01/26 07:36:25;;;;;;;;;;;16.80;71.70;;;;;;6276786;22;20257;-74
2024/01/26 07:38:51;;;;;;;;;;;16.60;71.60;;;;;;6276608;22;19911;-76
2024/01/26 07:41:17;;;;;;;;;;;16.50;71.50;;;;;;6277946;22;19903;-78
2024/01/26 07:43:43;;;;;;;;;;;16.50;71.60;;;;;;6278479;22;19910;-75
2024/01/26 07:46:10;;;;;;;;;;;16.50;71.60;;;;;;6278272;22;19903;-74
2024/01/26 07:48:36;;;;;;;;;;;16.40;71.40;;;;;;6278159;22;20223;-76
2024/01/26 07:51:02;;;;;;;;;;;16.50;71.70;;;;;;6278214;22;19904;-76
2024/01/26 07:53:27;;;;;;;;;;;16.40;71.30;;;;;;6277428;22;19949;-77
2024/01/26 07:55:53;;;;;;;;;;;16.50;71.80;;;;;;6277526;22;19933;-76
2024/01/26 07:58:18;;;;;;;;;;;16.50;71.80;;;;;;6277436;22;20231;-75
2024/01/26 08:00:44;;;;;;;;;;;16.40;71.80;;;;;;6277993;22;20294;-72
2024/01/26 08:03:10;;;;;;;;;;;16.50;71.30;;;;;;6277208;22;20281;-72
2024/01/26 08:05:36;;;;;;;;;;;16.50;71.40;;;;;;6276980;22;19915;-71
2024/01/26 08:08:01;;;;;;;;;;;16.50;71.20;;;;;;6277988;22;19953;-72
2024/01/26 08:10:27;;;;;;;;;;;16.80;71.70;;;;;;6277342;22;19935;-72
2024/01/26 08:12:53;;;;;;;;;;;16.50;71.80;;;;;;6277253;22;19994;-73
2024/01/26 08:15:18;;;;;;;;;;;16.50;71.80;;;;;;6277393;22;20353;-73
2024/01/26 08:17:44;;;;;;;;;;;16.50;71.70;;;;;;6277186;22;20406;-72
2024/01/26 08:20:10;;;;;;;;;;;16.50;71.50;;;;;;6277293;22;19956;-72
2024/01/26 08:22:38;;;;;;;;;;;16.50;70.10;;;;;;6277232;22;19919;-73
2024/01/26 08:25:04;;;;;;;;;;;16.50;71.50;;;;;;6277835;22;19993;-73
2024/01/26 08:27:29;;;;;;;;;;;16.50;70.40;;;;;;6277787;22;19989;-72
2024/01/26 08:29:55;;;;;;;;;;;16.50;71.50;;;;;;6277214;22;20335;-72
2024/01/26 08:32:21;;;;;;;;;;;16.50;71.50;;;;;;6277244;22;19903;-73
2024/01/26 08:34:46;;;;;;;;;;;16.50;71.80;;;;;;6277023;22;20014;-72
2024/01/26 08:37:12;;;;;;;;;;;16.50;71.70;;;;;;6277115;22;19911;-72
2024/01/26 08:39:38;;;;;;;;;;;16.50;71.30;;;;;;6277843;22;19982;-72
2024/01/26 08:42:04;;;;;;;;;;;16.50;71.60;;;;;;6277650;22;19998;-72
2024/01/26 08:44:32;;;;;;;;;;;16.50;71.10;;;;;;6277496;22;19903;-72
2024/01/26 08:46:58;;;;;;;;;;;16.50;69.90;;;;;;6277020;22;19972;-72
2024/01/26 08:49:23;;;;;;;;;;;16.70;71.60;;;;;;6276963;22;19942;-72
2024/01/26 08:51:51;;;;;;;;;;;16.50;71.60;;;;;;6276984;22;19903;-72
2024/01/26 08:54:17;;;;;;;;;;;16.50;71.30;;;;;;6277075;22;20377;-72
2024/01/26 08:56:42;;;;;;;;;;;16.50;71.40;;;;;;6277635;22;19931;-72
2024/01/26 08:59:11;;;;;;;;;;;16.50;71.60;;;;;;6276898;22;19945;-72
2024/01/26 09:01:38;;;;;;;;;;;16.50;70.70;;;;;;6276697;22;20246;-72
2024/01/26 09:04:06;;;;;;;;;;;16.60;71.40;;;;;;6277002;22;19903;-73
2024/01/26 09:06:32;;;;;;;;;;;16.50;71.50;;;;;;6276895;22;20346;-72
2024/01/26 09:08:58;;;;;;;;;;;16.40;71.10;;;;;;6276805;22;19958;-72
2024/01/26 09:11:23;;;;;;;;;;;16.50;71.40;;;;;;6276786;22;19918;-73
2024/01/26 09:13:49;;;;;;;;;;;16.50;71.20;;;;;;6276849;22;19949;-72
2024/01/26 09:16:15;;;;;;;;;;;16.40;71.50;;;;;;6276833;22;19918;-72
2024/01/26 09:18:40;;;;;;;;;;;16.50;71.10;;;;;;6276735;22;19919;-72
2024/01/26 09:21:10;;;;;;;;;;;16.50;71.10;;;;;;6276622;22;19910;-72
2024/01/26 09:23:36;;;;;;;;;;;16.50;71.30;;;;;;6276640;22;19911;-72
2024/01/26 09:26:01;;;;;;;;;;;16.40;71.00;;;;;;6277199;22;19903;-72
2024/01/26 09:28:27;;;;;;;;;;;16.50;70.70;;;;;;6276581;22;19907;-72
2024/01/26 09:30:52;;;;;;;;;;;16.50;71.00;;;;;;6276543;22;19903;-72
2024/01/26 09:33:18;;;;;;;;;;;16.60;70.80;;;;;;6276551;22;19910;-72
2024/01/26 09:35:43;;;;;;;;;;;16.50;71.00;;;;;;6277254;22;19965;-72
2024/01/26 09:38:09;;;;;;;;;;;16.50;70.70;;;;;;6277345;22;19911;-77
2024/01/26 09:40:35;;;;;;;;;;;16.50;71.00;;;;;;6276625;22;19932;-72
2024/01/26 09:43:00;;;;;;;;;;;16.50;70.60;;;;;;6276744;22;19994;-73
2024/01/26 09:45:26;;;;;;;;;;;16.40;70.40;;;;;;6276558;22;19933;-72
2024/01/26 09:47:52;;;;;;;;;;;16.40;70.60;;;;;;6276610;22;20319;-72
2024/01/26 09:50:19;;;;;;;;;;;16.50;70.40;;;;;;6276389;22;19904;-71
2024/01/26 09:52:45;;;;;;;;;;;16.50;70.40;;;;;;6277088;22;19953;-72
2024/01/26 09:55:11;;;;;;;;;;;16.40;70.40;;;;;;6276735;22;19918;-72
2024/01/26 09:57:37;;;;;;;;;;;16.40;70.40;;;;;;6276351;22;19975;-73
2024/01/26 10:00:04;;;;;;;;;;;16.50;70.20;;;;;;6276305;22;19903;-73
2024/01/26 10:02:30;;;;;;;;;;;16.50;69.90;;;;;;6276327;22;19965;-72
2024/01/26 10:04:56;;;;;;;;;;;16.00;69.90;;;;;;6276195;22;19905;-73
2024/01/26 10:07:21;;;;;;;;;;;16.30;69.90;;;;;;6286873;22;19911;-72
2024/01/26 10:09:47;;;;;;;;;;;16.40;70.00;;;;;;6276387;22;19903;-72
2024/01/26 10:12:12;;;;;;;;;;;16.40;69.90;;;;;;6276107;22;19903;-72
2024/01/26 10:14:38;;;;;;;;;;;17.50;70.50;;;;;;6276217;22;19907;-72
2024/01/26 10:17:04;;;;;;;;;;;16.40;69.70;;;;;;6276070;22;19914;-72
2024/01/26 10:19:30;;;;;;;;;;;15.60;69.00;;;;;;6276147;22;19975;-72
2024/01/26 10:21:56;;;;;;;;;;;16.50;69.20;;;;;;6276595;22;19911;-72
2024/01/26 10:24:23;;;;;;;;;;;16.60;69.50;;;;;;6276089;22;19930;-72
2024/01/26 10:26:53;;;;;;;;;;;16.60;69.20;;;;;;6276193;22;20242;-72
2024/01/26 10:29:19;;;;;;;;;;;16.70;68.90;;;;;;6275983;22;19903;-72
2024/01/26 10:31:45;;;;;;;;;;;16.70;68.70;;;;;;6276005;22;20277;-72
2024/01/26 10:34:14;;;;;;;;;;;16.80;68.60;;;;;;6276201;22;20341;-72
2024/01/26 10:36:44;;;;;;;;;;;16.60;64.00;;;;;;6276025;22;20235;-72
2024/01/26 10:39:22;;;;;;;;;;;16.80;64.10;;;;;;6275824;22;20350;-72
2024/01/26 10:41:48;;;;;;;;;;;17.00;68.60;;;;;;6275860;22;19989;-72
2024/01/26 10:44:14;;;;;;;;;;;16.80;68.10;;;;;;6275908;22;20295;-72
2024/01/26 10:46:40;;;;;;;;;;;16.90;68.20;;;;;;6275840;22;19903;-72
2024/01/26 10:49:06;;;;;;;;;;;16.90;68.20;;;;;;6276539;22;19930;-72
2024/01/26 10:51:34;;;;;;;;;;;16.90;68.10;;;;;;6276298;22;19910;-72
2024/01/26 10:54:00;;;;;;;;;;;16.90;67.90;;;;;;6275711;22;19910;-72
2024/01/26 10:56:25;;;;;;;;;;;16.90;68.00;;;;;;6275692;22;19903;-72
2024/01/26 10:58:51;;;;;;;;;;;17.00;67.30;;;;;;6276396;22;19934;-72
2024/01/26 11:01:17;;;;;;;;;;;17.20;67.00;;;;;;6275731;22;20337;-72
2024/01/26 11:03:43;;;;;;;;;;;17.10;67.10;;;;;;6275666;22;19917;-70
2024/01/26 11:06:09;;;;;;;;;;;17.20;67.50;;;;;;6275690;22;19946;-71
2024/01/26 11:08:35;;;;;;;;;;;17.20;67.20;;;;;;6275823;22;19931;-72
2024/01/26 11:11:00;;;;;;;;;;;17.30;66.90;;;;;;6275769;22;19918;-70
2024/01/26 11:13:26;;;;;;;;;;;17.20;67.10;;;;;;6275117;22;19903;-71
2024/01/26 11:16:02;;;;;;;;;;;17.20;66.90;;;;;;6275603;22;19909;-70
2024/01/26 11:18:27;;;;;;;;;;;17.30;67.10;;;;;;6275601;22;19910;-71
2024/01/26 11:20:53;;;;;;;;;;;17.30;66.60;;;;;;6275812;22;19903;-70
2024/01/26 11:23:18;;;;;;;;;;;17.40;66.60;;;;;;6275478;22;19911;-69
2024/01/26 11:25:46;;;;;;;;;;;17.40;66.60;;;;;;6275481;22;20215;-71
2024/01/26 11:28:14;;;;;;;;;;;17.40;66.60;;;;;;6276127;22;20234;-70
2024/01/26 11:30:40;;;;;;;;;;;17.40;66.50;;;;;;6285862;22;19911;-71
2024/01/26 11:33:16;;;;;;;;;;;17.40;66.60;;;;;;6275776;22;20241;-70
2024/01/26 11:35:41;;;;;;;;;;;17.50;62.50;;;;;;6275629;22;19903;-70
2024/01/26 11:38:08;;;;;;;;;;;17.40;67.00;;;;;;6276227;22;19981;-72
2024/01/26 11:40:33;;;;;;;;;;;17.30;67.10;;;;;;6275655;22;20264;-71
2024/01/26 11:42:59;;;;;;;;;;;17.30;67.00;;;;;;6275542;22;20381;-71
2024/01/26 11:45:34;;;;;;;;;;;17.30;67.10;;;;;;6275586;22;20239;-71
2024/01/26 11:48:00;;;;;;;;;;;17.30;67.10;;;;;;6275681;22;19910;-71
2024/01/26 11:50:25;;;;;;;;;;;17.30;67.00;;;;;;6275737;22;19931;-70
2024/01/26 11:52:51;;;;;;;;;;;17.40;66.80;;;;;;6275498;22;19956;-70
2024/01/26 11:55:16;;;;;;;;;;;17.40;66.50;;;;;;6275444;22;20267;-70
2024/01/26 11:57:42;;;;;;;;;;;17.50;66.60;;;;;;6275180;22;20311;-70
2024/01/26 12:00:09;;;;;;;;;;;17.50;66.70;;;;;;6275406;22;19990;-70
2024/01/26 12:02:35;;;;;;;;;;;17.60;66.10;;;;;;6275062;22;19915;-70
2024/01/26 12:05:01;;;;;;;;;;;17.50;66.50;;;;;;6275410;22;19911;-71
2024/01/26 12:07:27;;;;;;;;;;;17.60;65.80;;;;;;6286083;22;19907;-70
2024/01/26 12:09:53;;;;;;;;;;;17.70;66.00;;;;;;6274960;22;19917;-70
2024/01/26 12:12:19;;;;;;;;;;;17.70;65.40;;;;;;6275377;22;19903;-70
2024/01/26 12:14:45;;;;;;;;;;;17.80;65.30;;;;;;6275879;22;20255;-70
2024/01/26 12:17:10;;;;;;;;;;;17.10;64.40;;;;;;6275306;22;19911;-70
2024/01/26 12:19:37;;;;;;;;;;;17.80;65.30;;;;;;6275300;22;19903;-70
2024/01/26 12:22:05;;;;;;;;;;;17.80;64.90;;;;;;6275190;22;20258;-70
2024/01/26 12:24:32;;;;;;;;;;;17.90;64.50;;;;;;6275517;22;19903;-70
2024/01/26 12:26:58;;;;;;;;;;;17.90;64.80;;;;;;6277082;22;19950;-70
2024/01/26 12:29:23;;;;;;;;;;;17.90;64.80;;;;;;6277014;22;19911;-70
2024/01/26 12:31:50;;;;;;;;;;;18.00;64.30;;;;;;6277308;22;19903;-70
2024/01/26 12:34:15;;;;;;;;;;;18.00;64.30;;;;;;6276788;22;20368;-70
2024/01/26 12:36:41;;;;;;;;;;;18.10;64.00;;;;;;6276641;22;19911;-70
2024/01/26 12:39:07;;;;;;;;;;;18.10;64.20;;;;;;6276882;22;20357;-76
2024/01/26 12:41:33;;;;;;;;;;;18.10;63.80;;;;;;6277254;22;19982;-76
2024/01/26 12:43:59;;;;;;;;;;;18.30;63.80;;;;;;6276581;22;20290;-76
2024/01/26 12:46:24;;;;;;;;;;;18.30;63.60;;;;;;6276497;22;19990;-76
2024/01/26 12:48:50;;;;;;;;;;;18.40;63.50;;;;;;6276529;22;19973;-76
2024/01/26 12:51:15;;;;;;;;;;;18.30;63.20;;;;;;6276683;22;19903;-76
2024/01/26 12:53:41;;;;;;;;;;;18.40;63.20;;;;;;6277863;22;19907;-76
2024/01/26 12:56:06;;;;;;;;;;;18.40;63.10;;;;;;6276667;22;20033;-76
2024/01/26 12:58:32;;;;;;;;;;;18.50;62.60;;;;;;6276730;22;20234;-76
2024/01/26 13:00:58;;;;;;;;;;;18.50;62.90;;;;;;6276632;22;20219;-76
2024/01/26 13:03:26;;;;;;;;;;;18.50;62.50;;;;;;6276476;22;19994;-76
2024/01/26 13:05:52;;;;;;;;;;;18.60;59.50;;;;;;6276264;22;19950;-76
2024/01/26 13:08:18;;;;;;;;;;;18.60;62.70;;;;;;6276548;22;19903;-76
2024/01/26 13:10:45;;;;;;;;;;;18.60;62.60;;;;;;6277015;22;19904;-76
2024/01/26 13:13:11;;;;;;;;;;;18.70;62.50;;;;;;6276761;22;20006;-77
2024/01/26 13:15:37;;;;;;;;;;;18.70;62.50;;;;;;6276383;22;19914;-76
2024/01/26 13:18:02;;;;;;;;;;;18.80;62.00;;;;;;6276598;22;19935;-76
2024/01/26 13:20:28;;;;;;;;;;;18.80;61.30;;;;;;6276960;22;19903;-77
2024/01/26 13:22:54;;;;;;;;;;;19.00;62.00;;;;;;6276436;22;20321;-76
2024/01/26 13:25:19;;;;;;;;;;;18.80;61.80;;;;;;6276543;22;19938;-76
2024/01/26 13:27:45;;;;;;;;;;;18.90;61.80;;;;;;6276708;22;19903;-76
2024/01/26 13:30:11;;;;;;;;;;;18.90;61.60;;;;;;6276760;22;19903;-76
2024/01/26 13:32:37;;;;;;;;;;;19.00;61.10;;;;;;6276463;22;19919;-77
2024/01/26 13:35:04;;;;;;;;;;;18.90;61.50;;;;;;6276630;22;19934;-77
2024/01/26 13:37:29;;;;;;;;;;;19.00;60.50;;;;;;6276103;22;19903;-78
2024/01/26 13:39:55;;;;;;;;;;;19.00;61.50;;;;;;6277289;22;19931;-72
2024/01/26 13:42:21;;;;;;;;;;;18.90;61.60;;;;;;6277091;22;19911;-76
2024/01/26 13:44:48;;;;;;;;;;;19.00;61.60;;;;;;6277080;22;19903;-76
2024/01/26 13:47:14;;;;;;;;;;;19.00;61.50;;;;;;6276501;22;19927;-77
2024/01/26 13:49:40;;;;;;;;;;;19.00;61.80;;;;;;6276421;22;19988;-76
2024/01/26 13:52:05;;;;;;;;;;;19.00;62.00;;;;;;6276479;22;19903;-71
2024/01/26 13:54:31;;;;;;;;;;;19.00;61.90;;;;;;6276690;22;19912;-76
2024/01/26 13:57:00;;;;;;;;;;;18.90;62.00;;;;;;6276316;22;19910;-76
2024/01/26 13:59:25;;;;;;;;;;;19.00;61.80;;;;;;6276291;22;19904;-77
2024/01/26 14:01:51;;;;;;;;;;;19.10;61.10;;;;;;6276049;22;20013;-75
2024/01/26 14:04:19;;;;;;;;;;;19.20;61.40;;;;;;6275923;22;19918;-76
2024/01/26 14:06:44;;;;;;;;;;;18.90;61.40;;;;;;6275779;22;19919;-77
2024/01/26 14:09:12;;;;;;;;;;;19.00;61.70;;;;;;6276484;22;19907;-76